sensor_id;sensor_type;location;lat;lon;timestamp;P1;durP1;ratioP1;P2;durP2;ratioP2
17372;SDS011;8803;48.116;11.590;2023-08-12T00:02:03;3.80;;;3.50;;
17372;SDS011;8803;48.116;11.590;2023-08-12T00:04:07;5.80;;;3.83;;
17372;SDS011;8803;48.116;11.590;2023-08-12T00:06:13;4.30;;;3.90;;
17372;SDS011;8803;48.116;11.590;2023-08-12T00:08:17;4.03;;;3.13;;
17372;SDS011;8803;48.116;11.590;2023-08-12T00:10:22;4.63;;;3.43;;
17372;SDS011;8803;48.116;11.590;2023-08-12T00:12:27;4.00;;;3.70;;
17372;SDS011;8803;48.116;11.590;2023-08-12T00:14:31;3.47;;;3.17;;
17372;SDS011;8803;48.116;11.590;2023-08-12T00:16:35;3.93;;;3.63;;
17372;SDS011;8803;48.116;11.590;2023-08-12T00:18:39;3.60;;;3.30;;
17372;SDS011;8803;48.116;11.590;2023-08-12T00:20:42;4.27;;;3.87;;
17372;SDS011;8803;48.116;11.590;2023-08-12T00:22:55;3.77;;;3.47;;
17372;SDS011;8803;48.116;11.590;2023-08-12T00:24:59;3.35;;;3.05;;
17372;SDS011;8803;48.116;11.590;2023-08-12T00:27:04;4.03;;;3.63;;
17372;SDS011;8803;48.116;11.590;2023-08-12T00:29:17;4.20;;;3.80;;
17372;SDS011;8803;48.116;11.590;2023-08-12T00:31:21;3.73;;;3.43;;
17372;SDS011;8803;48.116;11.590;2023-08-12T00:33:25;3.67;;;3.37;;
17372;SDS011;8803;48.116;11.590;2023-08-12T00:35:38;3.83;;;3.53;;
17372;SDS011;8803;48.116;11.590;2023-08-12T00:37:42;3.80;;;3.40;;
17372;SDS011;8803;48.116;11.590;2023-08-12T00:39:47;3.83;;;3.53;;
17372;SDS011;8803;48.116;11.590;2023-08-12T00:41:52;4.97;;;3.73;;
17372;SDS011;8803;48.116;11.590;2023-08-12T00:43:56;4.33;;;3.80;;
17372;SDS011;8803;48.116;11.590;2023-08-12T00:46:00;4.03;;;3.73;;
17372;SDS011;8803;48.116;11.590;2023-08-12T00:48:06;3.90;;;3.60;;
17372;SDS011;8803;48.116;11.590;2023-08-12T00:50:20;4.63;;;4.20;;
17372;SDS011;8803;48.116;11.590;2023-08-12T00:52:25;4.23;;;3.77;;
17372;SDS011;8803;48.116;11.590;2023-08-12T00:54:30;4.17;;;3.77;;
17372;SDS011;8803;48.116;11.590;2023-08-12T00:56:34;4.27;;;3.87;;
17372;SDS011;8803;48.116;11.590;2023-08-12T00:58:39;4.63;;;3.90;;
17372;SDS011;8803;48.116;11.590;2023-08-12T01:00:45;4.57;;;3.80;;
17372;SDS011;8803;48.116;11.590;2023-08-12T01:02:49;4.07;;;3.50;;
17372;SDS011;8803;48.116;11.590;2023-08-12T01:04:57;3.90;;;3.50;;
17372;SDS011;8803;48.116;11.590;2023-08-12T01:07:01;3.77;;;3.47;;
17372;SDS011;8803;48.116;11.590;2023-08-12T01:09:06;3.80;;;3.50;;
17372;SDS011;8803;48.116;11.590;2023-08-12T01:11:20;3.80;;;3.40;;
17372;SDS011;8803;48.116;11.590;2023-08-12T01:13:29;3.80;;;3.50;;
17372;SDS011;8803;48.116;11.590;2023-08-12T01:15:37;3.83;;;3.50;;
17372;SDS011;8803;48.116;11.590;2023-08-12T01:17:43;3.90;;;3.60;;
17372;SDS011;8803;48.116;11.590;2023-08-12T01:19:50;4.00;;;3.70;;
17372;SDS011;8803;48.116;11.590;2023-08-12T01:21:55;4.30;;;3.87;;
17372;SDS011;8803;48.116;11.590;2023-08-12T01:24:01;4.43;;;4.03;;
17372;SDS011;8803;48.116;11.590;2023-08-12T01:26:05;4.50;;;4.10;;
17372;SDS011;8803;48.116;11.590;2023-08-12T01:28:10;6.63;;;4.63;;
17372;SDS011;8803;48.116;11.590;2023-08-12T01:30:14;5.23;;;4.67;;
17372;SDS011;8803;48.116;11.590;2023-08-12T01:32:24;5.07;;;4.63;;
17372;SDS011;8803;48.116;11.590;2023-08-12T01:34:31;4.90;;;4.50;;
17372;SDS011;8803;48.116;11.590;2023-08-12T01:36:44;4.70;;;4.20;;
17372;SDS011;8803;48.116;11.590;2023-08-12T01:38:51;4.00;;;3.70;;
17372;SDS011;8803;48.116;11.590;2023-08-12T01:40:57;4.10;;;3.70;;
17372;SDS011;8803;48.116;11.590;2023-08-12T01:43:11;4.03;;;3.60;;
17372;SDS011;8803;48.116;11.590;2023-08-12T01:45:16;5.23;;;4.03;;
17372;SDS011;8803;48.116;11.590;2023-08-12T01:47:30;5.57;;;3.90;;
17372;SDS011;8803;48.116;11.590;2023-08-12T01:49:35;4.20;;;3.80;;
17372;SDS011;8803;48.116;11.590;2023-08-12T01:51:39;3.67;;;3.37;;
17372;SDS011;8803;48.116;11.590;2023-08-12T01:53:43;4.07;;;3.77;;
17372;SDS011;8803;48.116;11.590;2023-08-12T01:55:56;4.03;;;3.67;;
17372;SDS011;8803;48.116;11.590;2023-08-12T01:58:01;3.93;;;3.63;;
17372;SDS011;8803;48.116;11.590;2023-08-12T02:00:07;4.00;;;3.70;;
17372;SDS011;8803;48.116;11.590;2023-08-12T02:02:12;3.67;;;3.37;;
17372;SDS011;8803;48.116;11.590;2023-08-12T02:04:17;3.80;;;3.50;;
17372;SDS011;8803;48.116;11.590;2023-08-12T02:06:22;4.37;;;3.90;;
17372;SDS011;8803;48.116;11.590;2023-08-12T02:08:34;3.70;;;3.40;;
17372;SDS011;8803;48.116;11.590;2023-08-12T02:10:39;4.73;;;3.20;;
17372;SDS011;8803;48.116;11.590;2023-08-12T02:12:43;3.97;;;3.57;;
17372;SDS011;8803;48.116;11.590;2023-08-12T02:14:56;3.90;;;3.50;;
17372;SDS011;8803;48.116;11.590;2023-08-12T02:17:01;3.97;;;3.57;;
17372;SDS011;8803;48.116;11.590;2023-08-12T02:21:18;4.33;;;3.50;;
17372;SDS011;8803;48.116;11.590;2023-08-12T02:23:22;3.43;;;3.13;;
17372;SDS011;8803;48.116;11.590;2023-08-12T02:25:27;3.93;;;3.63;;
17372;SDS011;8803;48.116;11.590;2023-08-12T02:27:31;3.67;;;3.37;;
17372;SDS011;8803;48.116;11.590;2023-08-12T02:29:35;3.97;;;3.67;;
17372;SDS011;8803;48.116;11.590;2023-08-12T02:31:49;4.60;;;3.87;;
17372;SDS011;8803;48.116;11.590;2023-08-12T02:33:53;4.23;;;3.60;;
17372;SDS011;8803;48.116;11.590;2023-08-12T02:35:58;4.20;;;3.53;;
17372;SDS011;8803;48.116;11.590;2023-08-12T02:38:02;4.83;;;4.30;;
17372;SDS011;8803;48.116;11.590;2023-08-12T02:40:09;4.57;;;3.97;;
17372;SDS011;8803;48.116;11.590;2023-08-12T02:42:14;5.43;;;3.80;;
17372;SDS011;8803;48.116;11.590;2023-08-12T02:44:19;4.33;;;3.93;;
17372;SDS011;8803;48.116;11.590;2023-08-12T02:46:23;4.63;;;4.03;;
17372;SDS011;8803;48.116;11.590;2023-08-12T02:48:27;4.63;;;4.23;;
17372;SDS011;8803;48.116;11.590;2023-08-12T02:50:40;4.83;;;4.33;;
17372;SDS011;8803;48.116;11.590;2023-08-12T02:52:44;4.67;;;3.90;;
17372;SDS011;8803;48.116;11.590;2023-08-12T02:54:49;6.73;;;4.20;;
17372;SDS011;8803;48.116;11.590;2023-08-12T02:57:02;4.10;;;3.73;;
17372;SDS011;8803;48.116;11.590;2023-08-12T03:01:07;3.87;;;3.57;;
17372;SDS011;8803;48.116;11.590;2023-08-12T03:03:11;4.33;;;3.93;;
17372;SDS011;8803;48.116;11.590;2023-08-12T03:05:16;4.00;;;3.70;;
17372;SDS011;8803;48.116;11.590;2023-08-12T03:07:21;3.73;;;3.10;;
17372;SDS011;8803;48.116;11.590;2023-08-12T03:09:25;4.93;;;4.00;;
17372;SDS011;8803;48.116;11.590;2023-08-12T03:13:41;3.50;;;3.20;;
17372;SDS011;8803;48.116;11.590;2023-08-12T03:15:46;3.80;;;3.50;;
17372;SDS011;8803;48.116;11.590;2023-08-12T03:17:50;5.63;;;3.53;;
17372;SDS011;8803;48.116;11.590;2023-08-12T03:20:05;3.63;;;3.33;;
17372;SDS011;8803;48.116;11.590;2023-08-12T03:22:11;4.43;;;3.30;;
17372;SDS011;8803;48.116;11.590;2023-08-12T03:24:15;3.73;;;3.43;;
17372;SDS011;8803;48.116;11.590;2023-08-12T03:26:20;3.80;;;3.50;;
17372;SDS011;8803;48.116;11.590;2023-08-12T03:28:24;3.47;;;3.17;;
17372;SDS011;8803;48.116;11.590;2023-08-12T03:30:28;4.50;;;3.80;;
17372;SDS011;8803;48.116;11.590;2023-08-12T03:32:33;4.53;;;3.50;;
17372;SDS011;8803;48.116;11.590;2023-08-12T03:34:37;4.23;;;3.83;;
17372;SDS011;8803;48.116;11.590;2023-08-12T03:36:42;4.07;;;3.70;;
17372;SDS011;8803;48.116;11.590;2023-08-12T03:38:47;3.87;;;3.57;;
17372;SDS011;8803;48.116;11.590;2023-08-12T03:40:51;4.20;;;3.90;;
17372;SDS011;8803;48.116;11.590;2023-08-12T03:42:56;5.10;;;3.43;;
17372;SDS011;8803;48.116;11.590;2023-08-12T03:45:00;4.40;;;4.00;;
17372;SDS011;8803;48.116;11.590;2023-08-12T03:47:05;4.90;;;4.47;;
17372;SDS011;8803;48.116;11.590;2023-08-12T03:51:21;4.17;;;3.87;;
17372;SDS011;8803;48.116;11.590;2023-08-12T03:53:25;4.00;;;3.60;;
17372;SDS011;8803;48.116;11.590;2023-08-12T03:55:30;4.57;;;4.17;;
17372;SDS011;8803;48.116;11.590;2023-08-12T03:57:35;3.90;;;3.60;;
17372;SDS011;8803;48.116;11.590;2023-08-12T03:59:39;4.30;;;3.77;;
17372;SDS011;8803;48.116;11.590;2023-08-12T04:01:43;5.17;;;4.10;;
17372;SDS011;8803;48.116;11.590;2023-08-12T04:03:48;4.07;;;3.73;;
17372;SDS011;8803;48.116;11.590;2023-08-12T04:05:53;4.37;;;3.97;;
17372;SDS011;8803;48.116;11.590;2023-08-12T04:08:06;3.90;;;3.50;;
17372;SDS011;8803;48.116;11.590;2023-08-12T04:10:10;4.13;;;3.73;;
17372;SDS011;8803;48.116;11.590;2023-08-12T04:12:15;4.00;;;3.53;;
17372;SDS011;8803;48.116;11.590;2023-08-12T04:14:19;4.83;;;3.90;;
17372;SDS011;8803;48.116;11.590;2023-08-12T04:16:23;4.43;;;4.03;;
17372;SDS011;8803;48.116;11.590;2023-08-12T04:18:28;3.83;;;3.53;;
17372;SDS011;8803;48.116;11.590;2023-08-12T04:20:32;4.30;;;3.90;;
17372;SDS011;8803;48.116;11.590;2023-08-12T04:22:37;5.63;;;3.80;;
17372;SDS011;8803;48.116;11.590;2023-08-12T04:24:41;3.73;;;3.43;;
17372;SDS011;8803;48.116;11.590;2023-08-12T04:26:45;4.13;;;3.70;;
17372;SDS011;8803;48.116;11.590;2023-08-12T04:31:05;4.20;;;3.80;;
17372;SDS011;8803;48.116;11.590;2023-08-12T04:33:08;4.10;;;3.70;;
17372;SDS011;8803;48.116;11.590;2023-08-12T04:37:24;4.67;;;4.07;;
17372;SDS011;8803;48.116;11.590;2023-08-12T04:39:30;3.87;;;3.50;;
17372;SDS011;8803;48.116;11.590;2023-08-12T04:41:46;3.77;;;3.47;;
17372;SDS011;8803;48.116;11.590;2023-08-12T04:43:50;4.13;;;3.67;;
17372;SDS011;8803;48.116;11.590;2023-08-12T04:45:55;3.77;;;3.47;;
17372;SDS011;8803;48.116;11.590;2023-08-12T04:47:59;4.73;;;3.60;;
17372;SDS011;8803;48.116;11.590;2023-08-12T04:50:05;5.17;;;3.63;;
17372;SDS011;8803;48.116;11.590;2023-08-12T04:52:10;3.97;;;3.67;;
17372;SDS011;8803;48.116;11.590;2023-08-12T04:54:15;4.20;;;3.57;;
17372;SDS011;8803;48.116;11.590;2023-08-12T04:56:19;4.17;;;3.77;;
17372;SDS011;8803;48.116;11.590;2023-08-12T04:58:24;4.03;;;3.63;;
17372;SDS011;8803;48.116;11.590;2023-08-12T05:00:28;3.70;;;3.40;;
17372;SDS011;8803;48.116;11.590;2023-08-12T05:02:42;4.03;;;3.17;;
17372;SDS011;8803;48.116;11.590;2023-08-12T05:04:47;7.37;;;3.97;;
17372;SDS011;8803;48.116;11.590;2023-08-12T05:06:52;3.90;;;3.60;;
17372;SDS011;8803;48.116;11.590;2023-08-12T05:08:56;7.43;;;6.30;;
17372;SDS011;8803;48.116;11.590;2023-08-12T05:11:00;10.30;;;9.20;;
17372;SDS011;8803;48.116;11.590;2023-08-12T05:13:05;13.10;;;11.70;;
17372;SDS011;8803;48.116;11.590;2023-08-12T05:15:10;8.10;;;7.40;;
17372;SDS011;8803;48.116;11.590;2023-08-12T05:17:14;6.35;;;5.45;;
17372;SDS011;8803;48.116;11.590;2023-08-12T05:19:27;4.80;;;4.27;;
17372;SDS011;8803;48.116;11.590;2023-08-12T05:21:32;4.15;;;3.77;;
17372;SDS011;8803;48.116;11.590;2023-08-12T05:23:36;3.83;;;3.42;;
17372;SDS011;8803;48.116;11.590;2023-08-12T05:25:41;3.80;;;3.50;;
17372;SDS011;8803;48.116;11.590;2023-08-12T05:27:45;4.03;;;3.62;;
17372;SDS011;8803;48.116;11.590;2023-08-12T05:29:49;5.55;;;4.03;;
17372;SDS011;8803;48.116;11.590;2023-08-12T05:31:54;5.92;;;5.42;;
17372;SDS011;8803;48.116;11.590;2023-08-12T05:34:07;6.60;;;6.00;;
17372;SDS011;8803;48.116;11.590;2023-08-12T05:36:11;6.28;;;5.67;;
17372;SDS011;8803;48.116;11.590;2023-08-12T05:38:16;6.17;;;5.58;;
17372;SDS011;8803;48.116;11.590;2023-08-12T05:40:20;6.08;;;5.12;;
17372;SDS011;8803;48.116;11.590;2023-08-12T05:42:24;4.72;;;4.33;;
17372;SDS011;8803;48.116;11.590;2023-08-12T05:44:29;4.20;;;3.80;;
17372;SDS011;8803;48.116;11.590;2023-08-12T05:46:41;3.95;;;3.65;;
17372;SDS011;8803;48.116;11.590;2023-08-12T05:48:45;5.22;;;3.47;;
17372;SDS011;8803;48.116;11.590;2023-08-12T05:50:50;3.90;;;3.60;;
17372;SDS011;8803;48.116;11.590;2023-08-12T05:52:54;4.83;;;4.33;;
17372;SDS011;8803;48.116;11.590;2023-08-12T05:57:09;5.62;;;5.05;;
17372;SDS011;8803;48.116;11.590;2023-08-12T05:59:14;9.40;;;8.50;;
17372;SDS011;8803;48.116;11.590;2023-08-12T06:01:18;5.17;;;4.72;;
17372;SDS011;8803;48.116;11.590;2023-08-12T06:03:23;4.47;;;3.55;;
17372;SDS011;8803;48.116;11.590;2023-08-12T06:05:27;5.03;;;3.83;;
17372;SDS011;8803;48.116;11.590;2023-08-12T06:07:31;5.45;;;3.60;;
17372;SDS011;8803;48.116;11.590;2023-08-12T06:09:36;3.80;;;3.50;;
17372;SDS011;8803;48.116;11.590;2023-08-12T06:11:49;3.80;;;3.50;;
17372;SDS011;8803;48.116;11.590;2023-08-12T06:13:53;3.40;;;3.10;;
17372;SDS011;8803;48.116;11.590;2023-08-12T06:15:57;7.62;;;6.85;;
17372;SDS011;8803;48.116;11.590;2023-08-12T06:18:10;9.20;;;8.40;;
17372;SDS011;8803;48.116;11.590;2023-08-12T06:20:15;11.85;;;10.75;;
17372;SDS011;8803;48.116;11.590;2023-08-12T06:22:19;7.75;;;6.95;;
17372;SDS011;8803;48.116;11.590;2023-08-12T06:24:24;3.90;;;3.60;;
17372;SDS011;8803;48.116;11.590;2023-08-12T06:26:28;4.22;;;3.62;;
17372;SDS011;8803;48.116;11.590;2023-08-12T06:28:32;3.87;;;3.50;;
17372;SDS011;8803;48.116;11.590;2023-08-12T06:30:36;3.95;;;3.50;;
17372;SDS011;8803;48.116;11.590;2023-08-12T06:32:41;3.35;;;3.02;;
17372;SDS011;8803;48.116;11.590;2023-08-12T06:34:45;3.37;;;3.10;;
17372;SDS011;8803;48.116;11.590;2023-08-12T06:36:49;4.28;;;3.60;;
17372;SDS011;8803;48.116;11.590;2023-08-12T06:38:55;3.58;;;3.27;;
17372;SDS011;8803;48.116;11.590;2023-08-12T06:41:00;3.35;;;3.05;;
17372;SDS011;8803;48.116;11.590;2023-08-12T06:43:12;3.80;;;3.40;;
17372;SDS011;8803;48.116;11.590;2023-08-12T06:45:18;3.17;;;2.92;;
17372;SDS011;8803;48.116;11.590;2023-08-12T06:47:32;2.98;;;2.77;;
17372;SDS011;8803;48.116;11.590;2023-08-12T06:49:37;4.12;;;3.72;;
17372;SDS011;8803;48.116;11.590;2023-08-12T06:51:41;3.47;;;2.75;;
17372;SDS011;8803;48.116;11.590;2023-08-12T06:53:45;2.80;;;2.60;;
17372;SDS011;8803;48.116;11.590;2023-08-12T06:55:50;3.12;;;2.83;;
17372;SDS011;8803;48.116;11.590;2023-08-12T06:57:54;3.87;;;3.02;;
17372;SDS011;8803;48.116;11.590;2023-08-12T07:00:10;3.80;;;2.85;;
17372;SDS011;8803;48.116;11.590;2023-08-12T07:02:15;2.83;;;2.62;;
17372;SDS011;8803;48.116;11.590;2023-08-12T07:04:28;4.50;;;2.90;;
17372;SDS011;8803;48.116;11.590;2023-08-12T07:06:32;3.02;;;2.80;;
17372;SDS011;8803;48.116;11.590;2023-08-12T07:08:37;5.05;;;3.33;;
17372;SDS011;8803;48.116;11.590;2023-08-12T07:10:42;4.37;;;3.02;;
17372;SDS011;8803;48.116;11.590;2023-08-12T07:12:46;3.02;;;2.72;;
17372;SDS011;8803;48.116;11.590;2023-08-12T07:14:51;3.50;;;3.20;;
17372;SDS011;8803;48.116;11.590;2023-08-12T07:16:55;4.42;;;3.08;;
17372;SDS011;8803;48.116;11.590;2023-08-12T07:18:59;3.72;;;3.10;;
17372;SDS011;8803;48.116;11.590;2023-08-12T07:21:04;3.90;;;3.60;;
17372;SDS011;8803;48.116;11.590;2023-08-12T07:23:08;4.85;;;2.85;;
17372;SDS011;8803;48.116;11.590;2023-08-12T07:25:12;3.67;;;3.00;;
17372;SDS011;8803;48.116;11.590;2023-08-12T07:27:17;3.98;;;3.20;;
17372;SDS011;8803;48.116;11.590;2023-08-12T07:29:21;6.15;;;3.25;;
17372;SDS011;8803;48.116;11.590;2023-08-12T07:31:34;3.35;;;3.05;;
17372;SDS011;8803;48.116;11.590;2023-08-12T07:33:38;3.20;;;2.90;;
17372;SDS011;8803;48.116;11.590;2023-08-12T07:35:43;3.95;;;3.25;;
17372;SDS011;8803;48.116;11.590;2023-08-12T07:37:56;3.00;;;2.80;;
17372;SDS011;8803;48.116;11.590;2023-08-12T07:40:00;2.80;;;2.60;;
17372;SDS011;8803;48.116;11.590;2023-08-12T07:42:05;3.60;;;3.30;;
17372;SDS011;8803;48.116;11.590;2023-08-12T07:44:10;3.02;;;2.83;;
17372;SDS011;8803;48.116;11.590;2023-08-12T07:46:14;2.85;;;2.65;;
17372;SDS011;8803;48.116;11.590;2023-08-12T07:48:18;3.65;;;3.00;;
17372;SDS011;8803;48.116;11.590;2023-08-12T07:50:23;3.15;;;2.85;;
17372;SDS011;8803;48.116;11.590;2023-08-12T07:52:27;3.50;;;3.20;;
17372;SDS011;8803;48.116;11.590;2023-08-12T07:54:31;3.60;;;3.30;;
17372;SDS011;8803;48.116;11.590;2023-08-12T07:56:36;3.25;;;2.95;;
17372;SDS011;8803;48.116;11.590;2023-08-12T07:58:40;3.87;;;2.90;;
17372;SDS011;8803;48.116;11.590;2023-08-12T08:00:44;3.00;;;2.80;;
17372;SDS011;8803;48.116;11.590;2023-08-12T08:03:01;3.05;;;2.85;;
17372;SDS011;8803;48.116;11.590;2023-08-12T08:05:07;3.50;;;3.17;;
17372;SDS011;8803;48.116;11.590;2023-08-12T08:07:12;2.92;;;2.72;;
17372;SDS011;8803;48.116;11.590;2023-08-12T08:09:16;3.30;;;3.00;;
17372;SDS011;8803;48.116;11.590;2023-08-12T08:11:20;4.08;;;3.67;;
17372;SDS011;8803;48.116;11.590;2023-08-12T08:13:26;3.17;;;2.92;;
17372;SDS011;8803;48.116;11.590;2023-08-12T08:15:39;3.45;;;3.15;;
17372;SDS011;8803;48.116;11.590;2023-08-12T08:17:43;2.95;;;2.70;;
17372;SDS011;8803;48.116;11.590;2023-08-12T08:19:48;2.77;;;2.58;;
17372;SDS011;8803;48.116;11.590;2023-08-12T08:21:52;2.98;;;2.77;;
17372;SDS011;8803;48.116;11.590;2023-08-12T08:23:56;3.00;;;2.80;;
17372;SDS011;8803;48.116;11.590;2023-08-12T08:26:00;3.10;;;2.90;;
17372;SDS011;8803;48.116;11.590;2023-08-12T08:28:05;3.02;;;2.83;;
17372;SDS011;8803;48.116;11.590;2023-08-12T08:30:18;3.58;;;2.83;;
17372;SDS011;8803;48.116;11.590;2023-08-12T08:32:24;3.10;;;2.90;;
17372;SDS011;8803;48.116;11.590;2023-08-12T08:34:28;3.02;;;2.83;;
17372;SDS011;8803;48.116;11.590;2023-08-12T08:36:33;2.92;;;2.72;;
17372;SDS011;8803;48.116;11.590;2023-08-12T08:38:37;3.22;;;2.92;;
17372;SDS011;8803;48.116;11.590;2023-08-12T08:40:42;4.55;;;3.05;;
17372;SDS011;8803;48.116;11.590;2023-08-12T08:42:46;3.22;;;2.92;;
17372;SDS011;8803;48.116;11.590;2023-08-12T08:44:54;3.17;;;2.98;;
17372;SDS011;8803;48.116;11.590;2023-08-12T08:47:01;3.00;;;2.80;;
17372;SDS011;8803;48.116;11.590;2023-08-12T08:49:06;3.30;;;3.02;;
17372;SDS011;8803;48.116;11.590;2023-08-12T08:51:12;2.92;;;2.72;;
17372;SDS011;8803;48.116;11.590;2023-08-12T08:53:16;3.25;;;2.95;;
17372;SDS011;8803;48.116;11.590;2023-08-12T08:55:22;3.95;;;2.90;;
17372;SDS011;8803;48.116;11.590;2023-08-12T08:57:27;3.85;;;3.22;;
17372;SDS011;8803;48.116;11.590;2023-08-12T08:59:40;3.60;;;2.70;;
17372;SDS011;8803;48.116;11.590;2023-08-12T09:01:44;3.47;;;3.15;;
17372;SDS011;8803;48.116;11.590;2023-08-12T09:03:52;3.40;;;3.17;;
17372;SDS011;8803;48.116;11.590;2023-08-12T09:05:57;3.22;;;2.92;;
17372;SDS011;8803;48.116;11.590;2023-08-12T09:08:02;3.10;;;2.90;;
17372;SDS011;8803;48.116;11.590;2023-08-12T09:10:10;3.08;;;2.87;;
17372;SDS011;8803;48.116;11.590;2023-08-12T09:12:23;3.62;;;3.33;;
17372;SDS011;8803;48.116;11.590;2023-08-12T09:14:28;3.15;;;2.85;;
17372;SDS011;8803;48.116;11.590;2023-08-12T09:16:32;2.92;;;2.72;;
17372;SDS011;8803;48.116;11.590;2023-08-12T09:18:37;5.55;;;5.12;;
17372;SDS011;8803;48.116;11.590;2023-08-12T09:20:42;5.25;;;4.85;;
17372;SDS011;8803;48.116;11.590;2023-08-12T09:22:56;3.30;;;3.05;;
17372;SDS011;8803;48.116;11.590;2023-08-12T09:25:01;3.10;;;2.90;;
17372;SDS011;8803;48.116;11.590;2023-08-12T09:27:07;2.80;;;2.60;;
17372;SDS011;8803;48.116;11.590;2023-08-12T09:29:12;2.77;;;2.58;;
17372;SDS011;8803;48.116;11.590;2023-08-12T09:31:23;2.70;;;2.50;;
17372;SDS011;8803;48.116;11.590;2023-08-12T09:33:39;3.10;;;2.90;;
17372;SDS011;8803;48.116;11.590;2023-08-12T09:37:55;3.20;;;2.90;;
17372;SDS011;8803;48.116;11.590;2023-08-12T09:39:59;3.33;;;3.10;;
17372;SDS011;8803;48.116;11.590;2023-08-12T09:42:06;3.10;;;2.72;;
17372;SDS011;8803;48.116;11.590;2023-08-12T09:44:11;3.45;;;3.15;;
17372;SDS011;8803;48.116;11.590;2023-08-12T09:46:16;4.20;;;2.98;;
17372;SDS011;8803;48.116;11.590;2023-08-12T09:48:20;3.15;;;2.90;;
17372;SDS011;8803;48.116;11.590;2023-08-12T09:50:25;3.40;;;3.10;;
17372;SDS011;8803;48.116;11.590;2023-08-12T09:52:30;3.35;;;3.05;;
17372;SDS011;8803;48.116;11.590;2023-08-12T09:54:35;3.02;;;2.72;;
17372;SDS011;8803;48.116;11.590;2023-08-12T09:56:39;3.08;;;2.75;;
17372;SDS011;8803;48.116;11.590;2023-08-12T09:58:53;3.25;;;2.95;;
17372;SDS011;8803;48.116;11.590;2023-08-12T10:00:58;3.80;;;3.00;;
17372;SDS011;8803;48.116;11.590;2023-08-12T10:03:05;2.75;;;2.55;;
17372;SDS011;8803;48.116;11.590;2023-08-12T10:05:20;3.00;;;2.80;;
17372;SDS011;8803;48.116;11.590;2023-08-12T10:07:27;2.85;;;2.65;;
17372;SDS011;8803;48.116;11.590;2023-08-12T10:09:32;3.17;;;2.87;;
17372;SDS011;8803;48.116;11.590;2023-08-12T10:11:37;3.33;;;3.02;;
17372;SDS011;8803;48.116;11.590;2023-08-12T10:13:42;3.20;;;3.00;;
17372;SDS011;8803;48.116;11.590;2023-08-12T10:15:47;3.22;;;2.87;;
17372;SDS011;8803;48.116;11.590;2023-08-12T10:18:00;3.40;;;3.10;;
17372;SDS011;8803;48.116;11.590;2023-08-12T10:20:08;3.10;;;2.90;;
17372;SDS011;8803;48.116;11.590;2023-08-12T10:22:22;3.60;;;3.30;;
17372;SDS011;8803;48.116;11.590;2023-08-12T10:24:28;3.50;;;3.20;;
17372;SDS011;8803;48.116;11.590;2023-08-12T10:26:33;5.40;;;3.52;;
17372;SDS011;8803;48.116;11.590;2023-08-12T10:28:46;3.17;;;2.98;;
17372;SDS011;8803;48.116;11.590;2023-08-12T10:30:52;3.42;;;3.10;;
17372;SDS011;8803;48.116;11.590;2023-08-12T10:35:09;4.75;;;2.80;;
17372;SDS011;8803;48.116;11.590;2023-08-12T10:37:13;2.90;;;2.70;;
17372;SDS011;8803;48.116;11.590;2023-08-12T10:39:18;3.17;;;2.98;;
17372;SDS011;8803;48.116;11.590;2023-08-12T10:41:32;4.17;;;3.08;;
17372;SDS011;8803;48.116;11.590;2023-08-12T10:43:48;3.12;;;2.92;;
17372;SDS011;8803;48.116;11.590;2023-08-12T10:45:55;3.12;;;2.92;;
17372;SDS011;8803;48.116;11.590;2023-08-12T10:48:11;3.65;;;3.35;;
17372;SDS011;8803;48.116;11.590;2023-08-12T10:50:21;3.30;;;3.00;;
17372;SDS011;8803;48.116;11.590;2023-08-12T10:52:27;4.17;;;2.90;;
17372;SDS011;8803;48.116;11.590;2023-08-12T10:54:32;5.45;;;4.95;;
17372;SDS011;8803;48.116;11.590;2023-08-12T10:56:51;3.60;;;3.30;;
17372;SDS011;8803;48.116;11.590;2023-08-12T10:59:09;3.20;;;2.90;;
17372;SDS011;8803;48.116;11.590;2023-08-12T11:01:21;3.60;;;3.35;;
17372;SDS011;8803;48.116;11.590;2023-08-12T11:03:27;3.85;;;3.55;;
17372;SDS011;8803;48.116;11.590;2023-08-12T11:07:48;3.98;;;3.22;;
17372;SDS011;8803;48.116;11.590;2023-08-12T11:09:55;3.37;;;3.05;;
17372;SDS011;8803;48.116;11.590;2023-08-12T11:12:10;3.08;;;2.87;;
17372;SDS011;8803;48.116;11.590;2023-08-12T11:14:16;4.12;;;3.20;;
17372;SDS011;8803;48.116;11.590;2023-08-12T11:16:20;3.98;;;3.60;;
17372;SDS011;8803;48.116;11.590;2023-08-12T11:18:43;3.60;;;3.30;;
17372;SDS011;8803;48.116;11.590;2023-08-12T11:20:48;3.15;;;2.85;;
17372;SDS011;8803;48.116;11.590;2023-08-12T11:22:54;3.85;;;3.55;;
17372;SDS011;8803;48.116;11.590;2023-08-12T11:25:00;3.75;;;3.45;;
17372;SDS011;8803;48.116;11.590;2023-08-12T11:27:05;3.20;;;2.87;;
17372;SDS011;8803;48.116;11.590;2023-08-12T11:29:13;3.90;;;3.60;;
17372;SDS011;8803;48.116;11.590;2023-08-12T11:31:18;3.33;;;3.12;;
17372;SDS011;8803;48.116;11.590;2023-08-12T11:33:23;3.40;;;2.95;;
17372;SDS011;8803;48.116;11.590;2023-08-12T11:35:28;4.35;;;3.35;;
17372;SDS011;8803;48.116;11.590;2023-08-12T11:37:33;3.55;;;3.22;;
17372;SDS011;8803;48.116;11.590;2023-08-12T11:39:39;3.33;;;2.87;;
17372;SDS011;8803;48.116;11.590;2023-08-12T11:41:43;3.90;;;3.35;;
17372;SDS011;8803;48.116;11.590;2023-08-12T11:43:47;3.62;;;3.25;;
17372;SDS011;8803;48.116;11.590;2023-08-12T11:48:04;3.20;;;2.90;;
17372;SDS011;8803;48.116;11.590;2023-08-12T11:50:10;4.83;;;2.87;;
17372;SDS011;8803;48.116;11.590;2023-08-12T11:52:15;3.30;;;3.00;;
17372;SDS011;8803;48.116;11.590;2023-08-12T11:54:19;2.95;;;2.60;;
17372;SDS011;8803;48.116;11.590;2023-08-12T11:56:24;2.70;;;2.50;;
17372;SDS011;8803;48.116;11.590;2023-08-12T11:58:35;2.92;;;2.72;;
17372;SDS011;8803;48.116;11.590;2023-08-12T12:00:40;2.87;;;2.67;;
17372;SDS011;8803;48.116;11.590;2023-08-12T12:02:46;2.65;;;2.42;;
17372;SDS011;8803;48.116;11.590;2023-08-12T12:04:52;2.70;;;2.50;;
17372;SDS011;8803;48.116;11.590;2023-08-12T12:06:56;2.83;;;2.62;;
17372;SDS011;8803;48.116;11.590;2023-08-12T12:09:05;3.45;;;3.08;;
17372;SDS011;8803;48.116;11.590;2023-08-12T12:11:18;4.12;;;2.75;;
17372;SDS011;8803;48.116;11.590;2023-08-12T12:13:23;3.20;;;2.90;;
17372;SDS011;8803;48.116;11.590;2023-08-12T12:15:28;3.20;;;2.90;;
17372;SDS011;8803;48.116;11.590;2023-08-12T12:17:32;2.70;;;2.50;;
17372;SDS011;8803;48.116;11.590;2023-08-12T12:19:39;2.83;;;2.62;;
17372;SDS011;8803;48.116;11.590;2023-08-12T12:21:45;3.02;;;2.72;;
17372;SDS011;8803;48.116;11.590;2023-08-12T12:23:52;2.83;;;2.60;;
17372;SDS011;8803;48.116;11.590;2023-08-12T12:26:00;2.67;;;2.47;;
17372;SDS011;8803;48.116;11.590;2023-08-12T12:28:06;2.85;;;2.65;;
17372;SDS011;8803;48.116;11.590;2023-08-12T12:30:12;4.40;;;3.10;;
17372;SDS011;8803;48.116;11.590;2023-08-12T12:32:18;2.85;;;2.65;;
17372;SDS011;8803;48.116;11.590;2023-08-12T12:34:23;2.62;;;2.42;;
17372;SDS011;8803;48.116;11.590;2023-08-12T12:36:27;3.52;;;2.70;;
17372;SDS011;8803;48.116;11.590;2023-08-12T12:38:31;2.60;;;2.40;;
17372;SDS011;8803;48.116;11.590;2023-08-12T12:40:36;3.02;;;2.58;;
17372;SDS011;8803;48.116;11.590;2023-08-12T12:42:40;3.52;;;2.58;;
17372;SDS011;8803;48.116;11.590;2023-08-12T12:44:45;3.47;;;2.92;;
17372;SDS011;8803;48.116;11.590;2023-08-12T12:46:49;2.90;;;2.60;;
17372;SDS011;8803;48.116;11.590;2023-08-12T12:48:53;2.98;;;2.67;;
17372;SDS011;8803;48.116;11.590;2023-08-12T12:50:57;3.60;;;2.60;;
17372;SDS011;8803;48.116;11.590;2023-08-12T12:53:02;3.70;;;2.42;;
17372;SDS011;8803;48.116;11.590;2023-08-12T12:55:08;3.85;;;2.58;;
17372;SDS011;8803;48.116;11.590;2023-08-12T12:57:12;4.47;;;2.62;;
17372;SDS011;8803;48.116;11.590;2023-08-12T12:59:17;2.62;;;2.42;;
17372;SDS011;8803;48.116;11.590;2023-08-12T13:01:29;3.45;;;2.45;;
17372;SDS011;8803;48.116;11.590;2023-08-12T13:03:34;2.50;;;2.30;;
17372;SDS011;8803;48.116;11.590;2023-08-12T13:05:38;2.52;;;2.30;;